sensor_id;sensor_type;location;lat;lon;timestamp;pressure;altitude;pressure_sealevel;temperature;humidity
48555;BME280;34336;48.270;16.716;2023-07-29T00:02:01;109325.25;;;18.16;63.24
48555;BME280;34336;48.270;16.716;2023-07-29T00:04:28;109325.25;;;18.16;63.12
48555;BME280;34336;48.270;16.716;2023-07-29T00:06:56;109325.25;;;18.16;63.21
48555;BME280;34336;48.270;16.716;2023-07-29T00:09:24;109325.25;;;18.16;63.33
48555;BME280;34336;48.270;16.716;2023-07-29T00:11:52;109325.25;;;18.16;64.32
48555;BME280;34336;48.270;16.716;2023-07-29T00:14:20;109325.25;;;18.16;64.25
48555;BME280;34336;48.270;16.716;2023-07-29T00:16:47;109325.25;;;18.16;65.00
48555;BME280;34336;48.270;16.716;2023-07-29T00:19:15;109325.25;;;18.16;65.59
48555;BME280;34336;48.270;16.716;2023-07-29T00:21:42;109325.25;;;18.16;66.66
48555;BME280;34336;48.270;16.716;2023-07-29T00:24:10;109325.25;;;18.16;66.93
48555;BME280;34336;48.270;16.716;2023-07-29T00:26:37;109325.25;;;18.16;67.77
48555;BME280;34336;48.270;16.716;2023-07-29T00:29:05;109325.25;;;18.16;67.53
48555;BME280;34336;48.270;16.716;2023-07-29T00:31:34;109325.25;;;18.16;67.01
48555;BME280;34336;48.270;16.716;2023-07-29T00:34:01;109325.25;;;18.16;67.13
48555;BME280;34336;48.270;16.716;2023-07-29T00:36:29;109325.25;;;18.16;67.68
48555;BME280;34336;48.270;16.716;2023-07-29T00:38:59;109325.25;;;18.16;67.75
48555;BME280;34336;48.270;16.716;2023-07-29T00:41:26;109325.25;;;18.16;67.57
48555;BME280;34336;48.270;16.716;2023-07-29T00:43:54;109325.25;;;18.16;67.98
48555;BME280;34336;48.270;16.716;2023-07-29T00:46:22;109325.25;;;18.16;67.89
48555;BME280;34336;48.270;16.716;2023-07-29T00:48:51;109325.25;;;18.16;68.15
48555;BME280;34336;48.270;16.716;2023-07-29T00:51:19;109325.25;;;18.16;68.30
48555;BME280;34336;48.270;16.716;2023-07-29T00:53:48;109325.25;;;18.16;68.23
48555;BME280;34336;48.270;16.716;2023-07-29T00:56:16;109325.25;;;18.16;67.94
48555;BME280;34336;48.270;16.716;2023-07-29T00:58:44;109325.25;;;18.16;68.24
48555;BME280;34336;48.270;16.716;2023-07-29T01:01:13;109325.25;;;18.16;68.30
48555;BME280;34336;48.270;16.716;2023-07-29T01:03:41;109325.25;;;18.16;68.64
48555;BME280;34336;48.270;16.716;2023-07-29T01:06:45;109325.25;;;18.16;68.94
48555;BME280;34336;48.270;16.716;2023-07-29T01:17:25;109325.25;;;18.16;69.14
48555;BME280;34336;48.270;16.716;2023-07-29T01:20:08;109325.25;;;18.16;69.37
48555;BME280;34336;48.270;16.716;2023-07-29T01:22:37;109325.25;;;18.16;69.40
48555;BME280;34336;48.270;16.716;2023-07-29T01:25:07;109325.25;;;18.16;69.47
48555;BME280;34336;48.270;16.716;2023-07-29T01:27:35;109325.25;;;18.16;69.29
48555;BME280;34336;48.270;16.716;2023-07-29T01:30:04;109325.25;;;18.16;69.02
48555;BME280;34336;48.270;16.716;2023-07-29T01:32:54;109325.25;;;18.16;69.20
48555;BME280;34336;48.270;16.716;2023-07-29T01:37:57;109325.25;;;18.16;69.57
48555;BME280;34336;48.270;16.716;2023-07-29T01:40:27;109325.25;;;18.16;68.76
48555;BME280;34336;48.270;16.716;2023-07-29T01:42:56;109325.25;;;18.16;69.37
48555;BME280;34336;48.270;16.716;2023-07-29T01:45:24;109325.25;;;18.16;68.94
48555;BME280;34336;48.270;16.716;2023-07-29T01:47:53;109325.25;;;18.16;69.66
48555;BME280;34336;48.270;16.716;2023-07-29T01:50:21;109325.25;;;18.16;70.13
48555;BME280;34336;48.270;16.716;2023-07-29T01:52:50;109325.25;;;18.16;70.30
48555;BME280;34336;48.270;16.716;2023-07-29T01:55:17;109325.25;;;18.16;70.69
48555;BME280;34336;48.270;16.716;2023-07-29T01:57:45;109325.25;;;18.16;71.25
48555;BME280;34336;48.270;16.716;2023-07-29T02:00:14;109325.25;;;18.16;71.30
48555;BME280;34336;48.270;16.716;2023-07-29T02:02:44;109325.25;;;18.16;71.72
48555;BME280;34336;48.270;16.716;2023-07-29T02:05:13;109325.25;;;18.16;72.09
48555;BME280;34336;48.270;16.716;2023-07-29T02:07:41;109325.25;;;18.16;71.85
48555;BME280;34336;48.270;16.716;2023-07-29T02:10:09;109325.25;;;18.16;72.06
48555;BME280;34336;48.270;16.716;2023-07-29T02:12:38;109325.25;;;18.16;72.14
48555;BME280;34336;48.270;16.716;2023-07-29T02:15:06;109325.25;;;18.16;72.03
48555;BME280;34336;48.270;16.716;2023-07-29T02:17:35;109325.25;;;18.16;72.22
48555;BME280;34336;48.270;16.716;2023-07-29T02:20:04;109325.25;;;18.16;72.41
48555;BME280;34336;48.270;16.716;2023-07-29T02:22:33;109325.25;;;18.16;73.48
48555;BME280;34336;48.270;16.716;2023-07-29T02:25:02;109325.25;;;18.16;73.86
48555;BME280;34336;48.270;16.716;2023-07-29T02:27:30;109325.25;;;18.16;74.02
48555;BME280;34336;48.270;16.716;2023-07-29T02:29:58;109325.25;;;18.16;74.15
48555;BME280;34336;48.270;16.716;2023-07-29T02:32:27;109325.25;;;18.16;74.31
48555;BME280;34336;48.270;16.716;2023-07-29T02:34:55;109325.25;;;18.16;74.63
48555;BME280;34336;48.270;16.716;2023-07-29T02:37:23;109325.25;;;18.16;74.51
48555;BME280;34336;48.270;16.716;2023-07-29T02:39:51;109325.25;;;18.16;73.00
48555;BME280;34336;48.270;16.716;2023-07-29T02:42:20;109325.25;;;18.16;73.77
48555;BME280;34336;48.270;16.716;2023-07-29T02:44:48;109325.25;;;18.16;74.11
48555;BME280;34336;48.270;16.716;2023-07-29T02:47:18;109325.25;;;18.16;74.50
48555;BME280;34336;48.270;16.716;2023-07-29T02:49:47;109325.25;;;18.16;74.58
48555;BME280;34336;48.270;16.716;2023-07-29T02:52:15;109325.25;;;18.16;74.84
48555;BME280;34336;48.270;16.716;2023-07-29T02:54:44;109325.25;;;18.16;75.06
48555;BME280;34336;48.270;16.716;2023-07-29T02:57:14;109325.25;;;18.16;75.42
48555;BME280;34336;48.270;16.716;2023-07-29T02:59:43;109325.25;;;18.16;75.58
48555;BME280;34336;48.270;16.716;2023-07-29T03:02:11;109325.25;;;18.16;75.66
48555;BME280;34336;48.270;16.716;2023-07-29T03:04:40;109325.25;;;18.16;76.11
48555;BME280;34336;48.270;16.716;2023-07-29T03:07:08;109325.25;;;18.16;76.14
48555;BME280;34336;48.270;16.716;2023-07-29T03:09:36;109325.25;;;18.16;76.33
48555;BME280;34336;48.270;16.716;2023-07-29T03:12:06;109325.25;;;18.16;76.09
48555;BME280;34336;48.270;16.716;2023-07-29T03:14:34;109325.25;;;18.16;76.21
48555;BME280;34336;48.270;16.716;2023-07-29T03:17:03;109325.25;;;18.16;76.18
48555;BME280;34336;48.270;16.716;2023-07-29T03:19:31;109325.25;;;18.16;75.58
48555;BME280;34336;48.270;16.716;2023-07-29T03:22:00;109325.25;;;18.16;75.05
48555;BME280;34336;48.270;16.716;2023-07-29T03:24:27;109325.25;;;18.16;74.58
48555;BME280;34336;48.270;16.716;2023-07-29T03:26:56;109325.25;;;18.16;74.62
48555;BME280;34336;48.270;16.716;2023-07-29T03:29:24;109325.25;;;18.16;74.87
48555;BME280;34336;48.270;16.716;2023-07-29T03:31:53;109325.25;;;18.16;74.34
48555;BME280;34336;48.270;16.716;2023-07-29T03:34:23;109325.25;;;18.16;74.18
48555;BME280;34336;48.270;16.716;2023-07-29T03:36:51;109325.25;;;18.16;74.04
48555;BME280;34336;48.270;16.716;2023-07-29T03:39:19;109325.25;;;18.16;74.08
48555;BME280;34336;48.270;16.716;2023-07-29T03:41:48;109325.25;;;18.16;74.04
48555;BME280;34336;48.270;16.716;2023-07-29T03:44:16;109325.25;;;18.16;73.65
48555;BME280;34336;48.270;16.716;2023-07-29T03:46:45;109325.25;;;18.16;72.99
48555;BME280;34336;48.270;16.716;2023-07-29T03:49:13;109325.25;;;18.16;72.22
48555;BME280;34336;48.270;16.716;2023-07-29T03:51:42;109325.25;;;18.16;71.80
48555;BME280;34336;48.270;16.716;2023-07-29T03:54:09;109325.25;;;18.16;71.03
48555;BME280;34336;48.270;16.716;2023-07-29T03:56:37;109325.25;;;18.16;68.73
48555;BME280;34336;48.270;16.716;2023-07-29T03:59:06;109325.25;;;18.16;62.89
48555;BME280;34336;48.270;16.716;2023-07-29T04:01:34;109325.25;;;18.16;60.18
48555;BME280;34336;48.270;16.716;2023-07-29T04:04:02;109325.25;;;18.16;60.69
48555;BME280;34336;48.270;16.716;2023-07-29T04:06:31;109325.25;;;18.16;60.95
48555;BME280;34336;48.270;16.716;2023-07-29T04:09:01;109325.25;;;18.16;62.11
48555;BME280;34336;48.270;16.716;2023-07-29T04:11:29;109325.25;;;18.16;63.27
48555;BME280;34336;48.270;16.716;2023-07-29T04:13:57;109325.25;;;18.16;63.19
48555;BME280;34336;48.270;16.716;2023-07-29T04:16:25;109325.25;;;18.16;60.51
48555;BME280;34336;48.270;16.716;2023-07-29T04:18:53;109325.25;;;18.16;59.80
48555;BME280;34336;48.270;16.716;2023-07-29T04:21:21;109325.25;;;18.16;59.84
48555;BME280;34336;48.270;16.716;2023-07-29T04:23:49;109325.25;;;18.16;56.29
48555;BME280;34336;48.270;16.716;2023-07-29T04:26:16;109325.25;;;18.16;53.68
48555;BME280;34336;48.270;16.716;2023-07-29T04:28:45;109325.25;;;18.16;55.00
48555;BME280;34336;48.270;16.716;2023-07-29T04:31:13;109325.25;;;18.16;56.68
48555;BME280;34336;48.270;16.716;2023-07-29T04:33:40;109325.25;;;18.16;58.16
48555;BME280;34336;48.270;16.716;2023-07-29T04:36:08;109325.25;;;18.16;58.99
48555;BME280;34336;48.270;16.716;2023-07-29T04:38:37;109325.25;;;18.16;59.52
48555;BME280;34336;48.270;16.716;2023-07-29T04:41:04;109325.25;;;18.16;60.45
48555;BME280;34336;48.270;16.716;2023-07-29T04:43:34;109325.25;;;18.16;61.21
48555;BME280;34336;48.270;16.716;2023-07-29T04:46:02;109325.25;;;18.16;61.07
48555;BME280;34336;48.270;16.716;2023-07-29T04:48:30;109325.25;;;18.16;62.91
48555;BME280;34336;48.270;16.716;2023-07-29T04:50:57;109325.25;;;18.16;62.58
48555;BME280;34336;48.270;16.716;2023-07-29T04:53:25;109325.25;;;18.16;62.72
48555;BME280;34336;48.270;16.716;2023-07-29T04:55:53;109325.25;;;18.16;62.10
48555;BME280;34336;48.270;16.716;2023-07-29T04:58:22;109325.25;;;18.16;62.47
48555;BME280;34336;48.270;16.716;2023-07-29T05:00:49;109325.25;;;18.16;62.79
48555;BME280;34336;48.270;16.716;2023-07-29T05:03:17;109325.25;;;18.16;63.04
48555;BME280;34336;48.270;16.716;2023-07-29T05:05:45;109325.25;;;18.16;62.98
48555;BME280;34336;48.270;16.716;2023-07-29T05:08:14;109325.25;;;18.16;62.81
48555;BME280;34336;48.270;16.716;2023-07-29T05:10:41;109325.25;;;18.16;62.77
48555;BME280;34336;48.270;16.716;2023-07-29T05:13:09;109325.25;;;18.16;62.48
48555;BME280;34336;48.270;16.716;2023-07-29T05:15:35;109325.25;;;18.16;62.40
48555;BME280;34336;48.270;16.716;2023-07-29T05:18:03;109325.25;;;18.16;62.07
48555;BME280;34336;48.270;16.716;2023-07-29T05:20:30;109325.25;;;18.16;61.76
48555;BME280;34336;48.270;16.716;2023-07-29T05:22:57;109325.25;;;18.16;61.40
48555;BME280;34336;48.270;16.716;2023-07-29T05:25:23;109325.25;;;18.16;61.27
48555;BME280;34336;48.270;16.716;2023-07-29T05:27:50;109325.25;;;18.16;61.64
48555;BME280;34336;48.270;16.716;2023-07-29T05:30:17;109325.25;;;18.16;61.84
48555;BME280;34336;48.270;16.716;2023-07-29T05:32:44;109325.25;;;18.16;62.13
48555;BME280;34336;48.270;16.716;2023-07-29T05:35:10;109325.25;;;18.16;62.82
48555;BME280;34336;48.270;16.716;2023-07-29T05:37:40;109325.25;;;18.16;62.91
48555;BME280;34336;48.270;16.716;2023-07-29T05:40:08;109325.25;;;18.16;63.13
48555;BME280;34336;48.270;16.716;2023-07-29T05:42:36;109325.25;;;18.16;62.29
48555;BME280;34336;48.270;16.716;2023-07-29T05:45:03;109325.25;;;18.16;61.70
48555;BME280;34336;48.270;16.716;2023-07-29T05:47:30;109325.25;;;18.16;60.79
48555;BME280;34336;48.270;16.716;2023-07-29T05:49:56;109325.25;;;18.16;60.31
48555;BME280;34336;48.270;16.716;2023-07-29T05:52:26;109325.25;;;18.16;59.71
48555;BME280;34336;48.270;16.716;2023-07-29T05:54:53;109325.25;;;18.16;59.74
48555;BME280;34336;48.270;16.716;2023-07-29T05:57:20;109325.25;;;18.16;58.17
48555;BME280;34336;48.270;16.716;2023-07-29T05:59:46;109325.25;;;18.16;57.75
48555;BME280;34336;48.270;16.716;2023-07-29T06:02:13;109325.25;;;18.16;54.15
48555;BME280;34336;48.270;16.716;2023-07-29T06:04:40;109325.25;;;18.16;51.05
48555;BME280;34336;48.270;16.716;2023-07-29T06:07:07;109325.25;;;18.16;50.37
48555;BME280;34336;48.270;16.716;2023-07-29T06:09:34;109325.25;;;18.16;50.78
48555;BME280;34336;48.270;16.716;2023-07-29T06:12:01;109325.25;;;18.16;51.22
48555;BME280;34336;48.270;16.716;2023-07-29T06:14:28;109325.25;;;18.16;51.09
48555;BME280;34336;48.270;16.716;2023-07-29T06:16:55;109325.25;;;18.16;50.86
48555;BME280;34336;48.270;16.716;2023-07-29T06:19:22;109325.25;;;18.16;50.79
48555;BME280;34336;48.270;16.716;2023-07-29T06:21:50;109325.25;;;18.16;49.77
48555;BME280;34336;48.270;16.716;2023-07-29T06:24:17;109325.25;;;18.16;48.59
48555;BME280;34336;48.270;16.716;2023-07-29T06:26:43;109325.25;;;18.16;48.04
48555;BME280;34336;48.270;16.716;2023-07-29T06:29:10;109325.25;;;18.16;47.37
48555;BME280;34336;48.270;16.716;2023-07-29T06:31:37;109325.25;;;18.16;46.44
48555;BME280;34336;48.270;16.716;2023-07-29T06:34:03;109325.25;;;18.16;45.53
48555;BME280;34336;48.270;16.716;2023-07-29T06:36:30;109325.25;;;18.16;44.05
48555;BME280;34336;48.270;16.716;2023-07-29T06:38:57;109325.25;;;18.16;41.03
48555;BME280;34336;48.270;16.716;2023-07-29T06:41:23;109325.25;;;18.16;40.83
48555;BME280;34336;48.270;16.716;2023-07-29T06:43:50;109325.25;;;18.16;41.50
48555;BME280;34336;48.270;16.716;2023-07-29T06:46:17;109325.25;;;18.16;41.62
48555;BME280;34336;48.270;16.716;2023-07-29T06:48:44;109325.25;;;18.16;41.55
48555;BME280;34336;48.270;16.716;2023-07-29T06:51:11;109325.25;;;18.16;42.64
48555;BME280;34336;48.270;16.716;2023-07-29T06:53:38;109325.25;;;18.16;42.91
48555;BME280;34336;48.270;16.716;2023-07-29T06:56:05;109325.25;;;18.16;41.48
48555;BME280;34336;48.270;16.716;2023-07-29T06:58:32;109325.25;;;18.16;41.94
48555;BME280;34336;48.270;16.716;2023-07-29T07:00:58;109325.25;;;18.16;43.06
48555;BME280;34336;48.270;16.716;2023-07-29T07:03:25;109325.25;;;18.16;44.45
48555;BME280;34336;48.270;16.716;2023-07-29T07:05:52;109325.25;;;18.16;44.12
48555;BME280;34336;48.270;16.716;2023-07-29T07:08:19;109325.25;;;18.16;43.96
48555;BME280;34336;48.270;16.716;2023-07-29T07:10:47;109325.25;;;18.16;42.67
48555;BME280;34336;48.270;16.716;2023-07-29T07:13:14;109325.25;;;18.16;41.49
48555;BME280;34336;48.270;16.716;2023-07-29T07:15:41;109325.25;;;18.16;38.65
48555;BME280;34336;48.270;16.716;2023-07-29T07:18:08;109325.25;;;18.16;37.22
48555;BME280;34336;48.270;16.716;2023-07-29T07:20:35;109325.25;;;18.16;36.81
48555;BME280;34336;48.270;16.716;2023-07-29T07:23:03;109325.25;;;18.16;36.21
48555;BME280;34336;48.270;16.716;2023-07-29T07:25:33;109325.25;;;18.16;37.19
48555;BME280;34336;48.270;16.716;2023-07-29T07:28:00;109325.25;;;18.16;37.28
48555;BME280;34336;48.270;16.716;2023-07-29T07:30:26;109325.25;;;18.16;37.07
48555;BME280;34336;48.270;16.716;2023-07-29T07:32:53;109325.25;;;18.16;37.70
48555;BME280;34336;48.270;16.716;2023-07-29T07:35:20;109325.25;;;18.16;38.31
48555;BME280;34336;48.270;16.716;2023-07-29T07:37:47;109325.25;;;18.16;40.23
48555;BME280;34336;48.270;16.716;2023-07-29T07:40:14;109325.25;;;18.16;41.73
48555;BME280;34336;48.270;16.716;2023-07-29T07:42:40;109325.25;;;18.16;42.95
48555;BME280;34336;48.270;16.716;2023-07-29T07:45:07;109325.25;;;18.16;43.01
48555;BME280;34336;48.270;16.716;2023-07-29T07:47:34;109325.25;;;18.16;43.04
48555;BME280;34336;48.270;16.716;2023-07-29T07:50:01;109325.25;;;18.16;42.80
48555;BME280;34336;48.270;16.716;2023-07-29T07:52:28;109325.25;;;18.16;41.95
48555;BME280;34336;48.270;16.716;2023-07-29T07:54:54;109325.25;;;18.16;41.40
48555;BME280;34336;48.270;16.716;2023-07-29T07:57:21;109325.25;;;18.16;39.99
48555;BME280;34336;48.270;16.716;2023-07-29T07:59:48;109325.25;;;18.16;39.99
48555;BME280;34336;48.270;16.716;2023-07-29T08:02:15;109325.25;;;18.16;41.08
48555;BME280;34336;48.270;16.716;2023-07-29T08:04:42;109325.25;;;18.16;41.91
48555;BME280;34336;48.270;16.716;2023-07-29T08:07:09;109325.25;;;18.16;42.03
48555;BME280;34336;48.270;16.716;2023-07-29T08:09:36;109325.25;;;18.16;41.69
48555;BME280;34336;48.270;16.716;2023-07-29T08:12:03;109325.25;;;18.16;42.28
48555;BME280;34336;48.270;16.716;2023-07-29T08:14:30;109325.25;;;18.16;42.91
48555;BME280;34336;48.270;16.716;2023-07-29T08:16:56;109325.25;;;18.16;42.63
48555;BME280;34336;48.270;16.716;2023-07-29T08:19:23;109325.25;;;18.16;41.86
48555;BME280;34336;48.270;16.716;2023-07-29T08:21:50;109325.25;;;18.16;41.38
48555;BME280;34336;48.270;16.716;2023-07-29T08:24:16;109325.25;;;18.16;39.99
48555;BME280;34336;48.270;16.716;2023-07-29T08:26:43;109325.25;;;18.16;40.12
48555;BME280;34336;48.270;16.716;2023-07-29T08:29:10;109325.25;;;18.16;39.61
48555;BME280;34336;48.270;16.716;2023-07-29T08:31:36;109325.25;;;18.16;39.21
48555;BME280;34336;48.270;16.716;2023-07-29T08:34:03;109325.25;;;18.16;40.08
48555;BME280;34336;48.270;16.716;2023-07-29T08:36:29;109325.25;;;18.16;40.78
48555;BME280;34336;48.270;16.716;2023-07-29T08:38:56;109325.25;;;18.16;40.24
48555;BME280;34336;48.270;16.716;2023-07-29T08:41:29;109325.25;;;18.16;41.06
48555;BME280;34336;48.270;16.716;2023-07-29T08:46:31;109325.25;;;18.16;39.60
48555;BME280;34336;48.270;16.716;2023-07-29T08:48:59;109325.25;;;18.16;39.86
48555;BME280;34336;48.270;16.716;2023-07-29T08:51:29;109325.25;;;18.16;41.31
48555;BME280;34336;48.270;16.716;2023-07-29T08:53:58;109325.25;;;18.16;40.36
48555;BME280;34336;48.270;16.716;2023-07-29T08:56:25;109325.25;;;18.16;40.87
48555;BME280;34336;48.270;16.716;2023-07-29T08:58:54;109325.25;;;18.16;41.49
48555;BME280;34336;48.270;16.716;2023-07-29T09:01:21;109325.25;;;18.16;40.78
48555;BME280;34336;48.270;16.716;2023-07-29T09:03:48;109325.25;;;18.16;40.20
48555;BME280;34336;48.270;16.716;2023-07-29T09:06:15;109325.25;;;18.16;40.74
48555;BME280;34336;48.270;16.716;2023-07-29T09:08:43;109325.25;;;18.16;39.53
48555;BME280;34336;48.270;16.716;2023-07-29T09:11:13;109325.25;;;18.16;39.40
48555;BME280;34336;48.270;16.716;2023-07-29T09:13:40;109325.25;;;18.16;39.29
48555;BME280;34336;48.270;16.716;2023-07-29T09:16:08;109325.25;;;18.16;39.33
48555;BME280;34336;48.270;16.716;2023-07-29T09:18:35;109325.25;;;18.16;39.89
48555;BME280;34336;48.270;16.716;2023-07-29T09:21:02;109325.25;;;18.16;39.53
48555;BME280;34336;48.270;16.716;2023-07-29T09:23:40;109325.25;;;18.16;39.04
48555;BME280;34336;48.270;16.716;2023-07-29T09:26:07;109325.25;;;18.16;38.77
48555;BME280;34336;48.270;16.716;2023-07-29T09:28:36;109325.25;;;18.16;37.45
48555;BME280;34336;48.270;16.716;2023-07-29T09:31:03;109325.25;;;18.16;38.47
48555;BME280;34336;48.270;16.716;2023-07-29T09:33:34;109325.25;;;18.16;38.31
48555;BME280;34336;48.270;16.716;2023-07-29T09:36:10;109325.25;;;18.16;37.63
48555;BME280;34336;48.270;16.716;2023-07-29T09:38:37;109325.25;;;18.16;37.65
48555;BME280;34336;48.270;16.716;2023-07-29T09:41:04;109325.25;;;18.16;37.70
48555;BME280;34336;48.270;16.716;2023-07-29T09:43:34;109325.25;;;18.16;37.54
48555;BME280;34336;48.270;16.716;2023-07-29T09:46:02;109325.25;;;18.16;37.49
48555;BME280;34336;48.270;16.716;2023-07-29T09:48:33;109325.25;;;18.16;37.20
48555;BME280;34336;48.270;16.716;2023-07-29T09:51:13;109325.25;;;18.16;37.96
48555;BME280;34336;48.270;16.716;2023-07-29T09:53:42;109325.25;;;18.16;37.55
48555;BME280;34336;48.270;16.716;2023-07-29T09:56:13;109325.25;;;18.16;37.50
48555;BME280;34336;48.270;16.716;2023-07-29T09:58:45;109325.25;;;18.16;36.70
48555;BME280;34336;48.270;16.716;2023-07-29T10:01:12;109325.25;;;18.16;37.07
48555;BME280;34336;48.270;16.716;2023-07-29T10:03:40;109325.25;;;18.16;36.77
48555;BME280;34336;48.270;16.716;2023-07-29T10:06:07;109325.25;;;18.16;36.12
48555;BME280;34336;48.270;16.716;2023-07-29T10:08:34;109325.25;;;18.16;35.92
48555;BME280;34336;48.270;16.716;2023-07-29T10:11:08;109325.25;;;18.16;35.80
48555;BME280;34336;48.270;16.716;2023-07-29T10:13:35;109325.25;;;18.16;35.59
48555;BME280;34336;48.270;16.716;2023-07-29T10:16:02;109325.25;;;18.16;35.84
48555;BME280;34336;48.270;16.716;2023-07-29T10:18:30;109325.25;;;18.16;35.08
48555;BME280;34336;48.270;16.716;2023-07-29T10:20:58;109325.25;;;18.16;36.60
48555;BME280;34336;48.270;16.716;2023-07-29T10:23:27;109325.25;;;18.16;35.24
48555;BME280;34336;48.270;16.716;2023-07-29T10:26:05;109325.25;;;18.16;35.07
48555;BME280;34336;48.270;16.716;2023-07-29T10:28:32;109325.25;;;18.16;35.95
48555;BME280;34336;48.270;16.716;2023-07-29T10:31:02;109325.25;;;18.16;35.38
48555;BME280;34336;48.270;16.716;2023-07-29T10:33:31;109325.25;;;18.16;35.91
48555;BME280;34336;48.270;16.716;2023-07-29T10:36:00;109325.25;;;18.16;34.35
48555;BME280;34336;48.270;16.716;2023-07-29T10:38:27;109325.25;;;18.16;34.88
48555;BME280;34336;48.270;16.716;2023-07-29T10:40:55;109325.25;;;18.16;34.85
48555;BME280;34336;48.270;16.716;2023-07-29T10:43:37;109325.25;;;18.16;35.24
48555;BME280;34336;48.270;16.716;2023-07-29T10:48:56;109325.25;;;18.16;34.77
48555;BME280;34336;48.270;16.716;2023-07-29T10:51:24;109325.25;;;18.16;34.98
48555;BME280;34336;48.270;16.716;2023-07-29T10:54:10;109325.25;;;18.16;34.76
48555;BME280;34336;48.270;16.716;2023-07-29T10:56:42;109325.25;;;18.16;34.25
48555;BME280;34336;48.270;16.716;2023-07-29T11:01:40;109325.25;;;18.16;34.06
48555;BME280;34336;48.270;16.716;2023-07-29T11:12:40;109325.25;;;18.16;34.95
48555;BME280;34336;48.270;16.716;2023-07-29T11:17:58;109325.25;;;18.16;33.88
48555;BME280;34336;48.270;16.716;2023-07-29T11:20:28;109325.25;;;18.16;33.88
48555;BME280;34336;48.270;16.716;2023-07-29T11:22:57;109325.25;;;18.16;33.79
48555;BME280;34336;48.270;16.716;2023-07-29T11:25:25;109325.25;;;18.16;34.14
48555;BME280;34336;48.270;16.716;2023-07-29T11:27:55;109325.25;;;18.16;33.45
48555;BME280;34336;48.270;16.716;2023-07-29T11:30:23;109325.25;;;18.16;32.78
48555;BME280;34336;48.270;16.716;2023-07-29T11:32:54;109325.25;;;18.16;32.93
48555;BME280;34336;48.270;16.716;2023-07-29T11:35:24;109325.25;;;18.16;32.93
48555;BME280;34336;48.270;16.716;2023-07-29T11:37:54;109325.25;;;18.16;33.59
48555;BME280;34336;48.270;16.716;2023-07-29T11:40:23;109325.25;;;18.16;33.75
48555;BME280;34336;48.270;16.716;2023-07-29T11:42:52;109325.25;;;18.16;33.42
48555;BME280;34336;48.270;16.716;2023-07-29T11:45:22;109325.25;;;18.16;33.50
48555;BME280;34336;48.270;16.716;2023-07-29T11:48:01;109325.25;;;18.16;33.12
48555;BME280;34336;48.270;16.716;2023-07-29T11:50:29;109325.25;;;18.16;31.85
48555;BME280;34336;48.270;16.716;2023-07-29T11:52:58;109325.25;;;18.16;31.99
48555;BME280;34336;48.270;16.716;2023-07-29T11:55:26;109325.25;;;18.16;33.32
48555;BME280;34336;48.270;16.716;2023-07-29T11:57:55;109325.25;;;18.16;33.15
48555;BME280;34336;48.270;16.716;2023-07-29T12:00:25;109325.25;;;18.16;33.21
48555;BME280;34336;48.270;16.716;2023-07-29T12:02:54;109325.25;;;18.16;33.67
48555;BME280;34336;48.270;16.716;2023-07-29T12:05:23;109325.25;;;18.16;33.26
48555;BME280;34336;48.270;16.716;2023-07-29T12:07:52;109325.25;;;18.16;34.23
48555;BME280;34336;48.270;16.716;2023-07-29T12:10:19;109325.25;;;18.16;33.03
48555;BME280;34336;48.270;16.716;2023-07-29T12:12:50;109325.25;;;18.16;33.07
48555;BME280;34336;48.270;16.716;2023-07-29T12:15:24;109325.25;;;18.16;33.52
48555;BME280;34336;48.270;16.716;2023-07-29T12:17:53;109325.25;;;18.16;34.13
48555;BME280;34336;48.270;16.716;2023-07-29T12:20:22;109325.25;;;18.16;33.18
48555;BME280;34336;48.270;16.716;2023-07-29T12:22:55;109325.25;;;18.16;32.41
48555;BME280;34336;48.270;16.716;2023-07-29T12:25:26;109325.25;;;18.16;32.99
48555;BME280;34336;48.270;16.716;2023-07-29T12:27:56;109325.25;;;18.16;32.29
48555;BME280;34336;48.270;16.716;2023-07-29T12:30:24;109325.25;;;18.16;33.11
48555;BME280;34336;48.270;16.716;2023-07-29T12:32:53;109325.25;;;18.16;33.50
48555;BME280;34336;48.270;16.716;2023-07-29T12:35:22;109325.25;;;18.16;33.45
48555;BME280;34336;48.270;16.716;2023-07-29T12:38:00;109325.25;;;18.16;33.91
48555;BME280;34336;48.270;16.716;2023-07-29T12:40:30;109325.25;;;18.16;33.47
48555;BME280;34336;48.270;16.716;2023-07-29T12:43:00;109325.25;;;18.16;33.47
48555;BME280;34336;48.270;16.716;2023-07-29T12:45:35;109325.25;;;18.16;33.26
48555;BME280;34336;48.270;16.716;2023-07-29T12:48:03;109325.25;;;18.16;33.77
48555;BME280;34336;48.270;16.716;2023-07-29T12:50:32;109325.25;;;18.16;34.38
48555;BME280;34336;48.270;16.716;2023-07-29T12:53:00;109325.25;;;18.16;34.94
48555;BME280;34336;48.270;16.716;2023-07-29T12:55:28;109325.25;;;18.16;34.61
48555;BME280;34336;48.270;16.716;2023-07-29T12:57:55;109325.25;;;18.16;35.23
48555;BME280;34336;48.270;16.716;2023-07-29T13:00:23;109325.25;;;18.16;35.35
48555;BME280;34336;48.270;16.716;2023-07-29T13:02:51;109325.25;;;18.16;36.55
48555;BME280;34336;48.270;16.716;2023-07-29T13:05:19;109325.25;;;18.16;35.93
48555;BME280;34336;48.270;16.716;2023-07-29T13:07:47;109325.25;;;18.16;36.21
48555;BME280;34336;48.270;16.716;2023-07-29T13:10:17;109325.25;;;18.16;36.60
48555;BME280;34336;48.270;16.716;2023-07-29T13:12:45;109325.25;;;18.16;36.81
48555;BME280;34336;48.270;16.716;2023-07-29T13:15:14;109325.25;;;18.16;36.59
48555;BME280;34336;48.270;16.716;2023-07-29T13:17:42;109325.25;;;18.16;36.67